createdAt,value
2022-09-21T00:01:08.822Z,100.00
2022-09-21T00:03:36.911Z,100.00
2022-09-21T00:06:05.861Z,100.00
2022-09-21T00:08:32.342Z,100.00
2022-09-21T00:11:00.103Z,100.00
2022-09-21T00:13:28.282Z,100.00
2022-09-21T00:15:55.960Z,100.00
2022-09-21T00:18:23.003Z,99.67
2022-09-21T00:20:49.438Z,99.60
2022-09-21T00:23:16.154Z,99.87
2022-09-21T00:25:42.503Z,99.16
2022-09-21T00:28:09.005Z,98.44
2022-09-21T00:30:35.378Z,97.85
2022-09-21T00:33:01.739Z,97.44
2022-09-21T00:35:28.077Z,97.90
2022-09-21T00:37:54.642Z,97.51
2022-09-21T00:40:21.107Z,97.98
2022-09-21T00:42:47.963Z,98.35
2022-09-21T00:45:21.297Z,98.59
2022-09-21T00:47:51.639Z,99.33
2022-09-21T00:50:24.358Z,98.77
2022-09-21T00:52:54.263Z,99.69
2022-09-21T00:55:31.142Z,99.39
2022-09-21T00:58:02.083Z,100.00
2022-09-21T01:00:28.517Z,100.00
2022-09-21T01:03:01.249Z,100.00
2022-09-21T01:05:28.938Z,100.00
2022-09-21T01:08:00.481Z,100.00
2022-09-21T01:10:27.462Z,100.00
2022-09-21T01:13:15.023Z,100.00
2022-09-21T01:15:53.262Z,100.00
2022-09-21T01:18:53.831Z,100.00
2022-09-21T01:21:30.849Z,100.00
2022-09-21T01:24:18.660Z,100.00
2022-09-21T01:27:16.109Z,100.00
2022-09-21T01:29:49.088Z,100.00
2022-09-21T01:32:28.142Z,100.00
2022-09-21T01:35:03.025Z,100.00
2022-09-21T01:37:36.251Z,100.00
2022-09-21T01:40:11.021Z,100.00
2022-09-21T01:42:40.948Z,100.00
2022-09-21T01:45:10.355Z,100.00
2022-09-21T01:47:40.692Z,100.00
2022-09-21T01:50:11.493Z,100.00
2022-09-21T01:52:46.020Z,100.00
2022-09-21T01:55:18.619Z,100.00
2022-09-21T01:57:54.689Z,100.00
2022-09-21T02:00:22.030Z,100.00
2022-09-21T02:02:53.631Z,100.00
2022-09-21T02:05:23.188Z,100.00
2022-09-21T02:07:51.817Z,100.00
2022-09-21T02:10:32.630Z,100.00
2022-09-21T02:13:06.221Z,100.00
2022-09-21T02:15:51.837Z,100.00
2022-09-21T02:18:29.084Z,100.00
2022-09-21T02:20:59.900Z,100.00
2022-09-21T02:23:37.501Z,100.00
2022-09-21T02:26:10.516Z,100.00
2022-09-21T02:29:01.484Z,100.00
2022-09-21T02:31:57.516Z,100.00
2022-09-21T02:34:52.571Z,100.00
2022-09-21T02:37:47.954Z,100.00
2022-09-21T02:40:32.607Z,100.00
2022-09-21T02:43:09.152Z,100.00
2022-09-21T02:45:43.946Z,100.00
2022-09-21T02:48:34.762Z,100.00
2022-09-21T02:51:07.435Z,100.00
2022-09-21T02:53:36.941Z,100.00
2022-09-21T02:56:07.077Z,100.00
2022-09-21T02:58:40.908Z,100.00
2022-09-21T03:01:11.110Z,100.00
2022-09-21T03:03:38.086Z,100.00
2022-09-21T03:06:04.664Z,100.00
2022-09-21T03:08:31.022Z,100.00
2022-09-21T03:10:57.730Z,100.00
2022-09-21T03:13:24.566Z,100.00
2022-09-21T03:16:02.615Z,100.00
2022-09-21T03:18:29.608Z,100.00
2022-09-21T03:20:55.984Z,100.00
2022-09-21T03:23:22.390Z,100.00
2022-09-21T03:25:48.810Z,100.00
2022-09-21T03:28:15.853Z,100.00
2022-09-21T03:30:43.088Z,100.00
2022-09-21T03:33:10.079Z,100.00
2022-09-21T03:35:36.420Z,100.00
2022-09-21T03:38:03.062Z,100.00
2022-09-21T03:40:29.528Z,100.00
2022-09-21T03:42:56.027Z,100.00
2022-09-21T03:45:22.496Z,100.00
2022-09-21T03:47:49.128Z,100.00
2022-09-21T03:50:15.750Z,100.00
2022-09-21T03:52:42.175Z,100.00
2022-09-21T03:55:09.581Z,100.00
2022-09-21T03:57:36.656Z,100.00
2022-09-21T04:00:09.267Z,100.00
2022-09-21T04:02:36.898Z,100.00
2022-09-21T04:05:04.108Z,100.00
2022-09-21T04:07:34.592Z,100.00
2022-09-21T04:10:05.884Z,100.00
2022-09-21T04:12:34.477Z,100.00
2022-09-21T04:15:01.569Z,100.00
2022-09-21T04:17:28.585Z,100.00
2022-09-21T04:19:54.986Z,100.00
2022-09-21T04:22:21.348Z,100.00
2022-09-21T04:24:47.686Z,100.00
2022-09-21T04:27:14.461Z,100.00
2022-09-21T04:29:41.190Z,100.00
2022-09-21T04:32:07.882Z,100.00
2022-09-21T04:34:34.308Z,100.00
2022-09-21T04:37:00.641Z,100.00
2022-09-21T04:39:26.973Z,100.00
2022-09-21T04:41:53.358Z,100.00
2022-09-21T04:44:19.752Z,100.00
2022-09-21T04:46:46.660Z,100.00
2022-09-21T04:49:13.011Z,100.00
2022-09-21T04:51:39.362Z,100.00
2022-09-21T04:54:06.561Z,100.00
2022-09-21T04:56:33.697Z,100.00
2022-09-21T04:59:00.121Z,100.00
2022-09-21T05:01:26.522Z,100.00
2022-09-21T05:03:52.994Z,100.00
2022-09-21T05:06:19.426Z,100.00
2022-09-21T05:09:04.316Z,100.00
2022-09-21T05:11:30.837Z,100.00
2022-09-21T05:13:57.348Z,100.00
2022-09-21T05:16:23.807Z,100.00
2022-09-21T05:18:53.942Z,100.00
2022-09-21T05:21:21.454Z,100.00
2022-09-21T05:23:47.791Z,100.00
2022-09-21T05:26:14.158Z,100.00
2022-09-21T05:28:40.918Z,100.00
2022-09-21T05:31:33.005Z,100.00
2022-09-21T05:34:18.539Z,100.00
2022-09-21T05:37:03.356Z,100.00
2022-09-21T05:39:30.057Z,100.00
2022-09-21T05:41:56.929Z,100.00
2022-09-21T05:44:23.668Z,100.00
2022-09-21T05:47:05.987Z,100.00
2022-09-21T05:49:49.569Z,100.00
2022-09-21T05:52:25.125Z,100.00
2022-09-21T05:55:22.944Z,100.00
2022-09-21T05:58:23.688Z,100.00
2022-09-21T06:01:02.274Z,100.00
2022-09-21T06:03:30.860Z,100.00
2022-09-21T06:05:58.337Z,100.00
2022-09-21T06:08:25.714Z,100.00
2022-09-21T06:10:52.687Z,100.00
2022-09-21T06:13:19.468Z,100.00
2022-09-21T06:15:45.802Z,100.00
2022-09-21T06:18:17.527Z,100.00
2022-09-21T06:20:44.229Z,100.00
2022-09-21T06:23:13.053Z,100.00
2022-09-21T06:25:39.434Z,100.00
2022-09-21T06:28:11.847Z,100.00
2022-09-21T06:30:40.870Z,100.00
2022-09-21T06:33:07.822Z,100.00
2022-09-21T06:35:35.830Z,100.00
2022-09-21T06:38:05.310Z,100.00
2022-09-21T06:40:33.854Z,100.00
2022-09-21T06:43:01.941Z,100.00
2022-09-21T06:45:29.796Z,100.00
2022-09-21T06:47:56.254Z,100.00
2022-09-21T06:50:23.406Z,100.00
2022-09-21T06:52:50.006Z,100.00
2022-09-21T06:55:16.940Z,100.00
2022-09-21T06:57:43.727Z,100.00
2022-09-21T07:00:12.420Z,100.00
2022-09-21T07:02:42.182Z,100.00
2022-09-21T07:05:08.625Z,100.00
2022-09-21T07:07:36.393Z,100.00
2022-09-21T07:10:05.535Z,100.00
2022-09-21T07:12:34.517Z,100.00
2022-09-21T07:15:02.400Z,100.00
2022-09-21T07:17:36.708Z,100.00
2022-09-21T07:20:05.074Z,100.00
2022-09-21T07:22:32.800Z,100.00
2022-09-21T07:24:59.997Z,100.00
2022-09-21T07:27:26.525Z,100.00
2022-09-21T07:29:52.953Z,100.00
2022-09-21T07:32:19.874Z,100.00
2022-09-21T07:34:46.579Z,100.00
2022-09-21T07:37:13.825Z,100.00
2022-09-21T07:39:40.185Z,100.00
2022-09-21T07:42:07.074Z,100.00
2022-09-21T07:44:34.176Z,100.00
2022-09-21T07:47:01.824Z,100.00
2022-09-21T07:49:28.170Z,100.00
2022-09-21T07:51:54.575Z,100.00
2022-09-21T07:54:20.994Z,100.00
2022-09-21T07:57:07.344Z,100.00
2022-09-21T07:59:33.730Z,100.00
2022-09-21T08:02:00.521Z,100.00
2022-09-21T08:04:27.020Z,100.00
2022-09-21T08:06:53.421Z,100.00
2022-09-21T08:09:19.766Z,100.00
2022-09-21T08:11:46.976Z,100.00
2022-09-21T08:14:22.393Z,100.00
2022-09-21T08:16:52.479Z,100.00
2022-09-21T08:19:19.213Z,100.00
2022-09-21T08:21:51.416Z,100.00
2022-09-21T08:24:21.388Z,100.00
2022-09-21T08:26:49.827Z,100.00
2022-09-21T08:29:16.196Z,100.00
2022-09-21T08:31:43.375Z,100.00
2022-09-21T08:34:09.852Z,100.00
2022-09-21T08:36:36.224Z,100.00
2022-09-21T08:39:02.775Z,100.00
2022-09-21T08:41:47.592Z,100.00
2022-09-21T08:44:20.038Z,100.00
2022-09-21T08:46:50.473Z,100.00
2022-09-21T08:49:25.082Z,100.00
2022-09-21T08:51:57.667Z,100.00
2022-09-21T08:54:51.653Z,100.00
2022-09-21T08:57:19.301Z,100.00
2022-09-21T08:59:47.937Z,100.00
2022-09-21T09:02:40.320Z,100.00
2022-09-21T09:05:28.310Z,100.00
2022-09-21T09:08:14.625Z,100.00
2022-09-21T09:10:52.080Z,100.00
2022-09-21T09:13:52.984Z,100.00
2022-09-21T09:16:36.172Z,100.00
2022-09-21T09:19:23.420Z,100.00
2022-09-21T09:21:50.145Z,100.00
2022-09-21T09:24:38.696Z,100.00
2022-09-21T09:27:17.908Z,100.00
2022-09-21T09:29:54.244Z,100.00
2022-09-21T09:32:27.649Z,100.00
2022-09-21T09:35:05.082Z,100.00
2022-09-21T09:37:36.936Z,100.00
2022-09-21T09:40:03.938Z,100.00
2022-09-21T09:43:00.169Z,100.00
2022-09-21T09:45:31.817Z,100.00
2022-09-21T09:48:27.009Z,100.00
2022-09-21T09:50:53.425Z,100.00
2022-09-21T09:53:23.879Z,100.00
2022-09-21T09:55:54.297Z,100.00
2022-09-21T09:58:34.291Z,100.00
2022-09-21T10:01:00.655Z,100.00
2022-09-21T10:03:28.701Z,100.00
2022-09-21T10:05:55.644Z,100.00
2022-09-21T10:08:43.945Z,100.00
2022-09-21T10:11:13.127Z,99.50
2022-09-21T10:13:43.149Z,99.25
2022-09-21T10:16:09.523Z,98.47
2022-09-21T10:18:51.842Z,97.68
2022-09-21T10:21:22.363Z,95.64
2022-09-21T10:23:56.676Z,96.96
2022-09-21T10:26:23.234Z,94.34
2022-09-21T10:29:01.334Z,93.98
2022-09-21T10:31:30.677Z,91.05
2022-09-21T10:34:12.587Z,92.45
2022-09-21T10:36:38.984Z,90.66
2022-09-21T10:39:18.799Z,92.11
2022-09-21T10:41:50.485Z,92.50
2022-09-21T10:44:19.324Z,90.33
2022-09-21T10:46:48.656Z,88.98
2022-09-21T10:49:21.470Z,87.90
2022-09-21T10:51:51.110Z,88.97
2022-09-21T10:54:25.818Z,89.89
2022-09-21T10:57:16.306Z,86.57
2022-09-21T10:59:42.713Z,87.48
2022-09-21T11:02:34.427Z,88.01
2022-09-21T11:05:18.168Z,87.10
2022-09-21T11:08:12.646Z,87.96
2022-09-21T11:10:53.537Z,85.12
2022-09-21T11:13:38.590Z,87.56
2022-09-21T11:16:22.637Z,87.02
2022-09-21T11:18:51.706Z,83.25
2022-09-21T11:21:36.385Z,83.24
2022-09-21T11:24:26.299Z,85.55
2022-09-21T11:27:03.896Z,80.90
2022-09-21T11:29:50.140Z,83.09
2022-09-21T11:32:42.439Z,79.92
2022-09-21T11:35:35.228Z,81.75
2022-09-21T11:38:20.428Z,80.85
2022-09-21T11:40:53.584Z,80.07
2022-09-21T11:43:35.481Z,75.90
2022-09-21T11:46:30.207Z,78.25
2022-09-21T11:49:33.817Z,76.68
2022-09-21T11:52:02.912Z,76.43
2022-09-21T11:54:53.618Z,77.84
2022-09-21T11:57:25.669Z,77.24
2022-09-21T12:00:04.218Z,75.53
2022-09-21T12:02:51.974Z,73.81
2022-09-21T12:05:56.584Z,73.92
2022-09-21T12:08:35.104Z,74.84
2022-09-21T12:11:06.177Z,73.55
2022-09-21T12:13:45.308Z,73.16
2022-09-21T12:16:40.609Z,73.63
2022-09-21T12:19:13.877Z,73.38
2022-09-21T12:21:47.445Z,73.49
2022-09-21T12:24:22.752Z,76.22
2022-09-21T12:26:55.460Z,79.92
2022-09-21T12:29:47.537Z,79.78
2022-09-21T12:32:47.303Z,76.75
2022-09-21T12:35:36.292Z,73.64
2022-09-21T12:38:23.432Z,72.31
2022-09-21T12:40:59.716Z,71.38
2022-09-21T12:43:36.978Z,72.14
2022-09-21T12:46:07.668Z,68.84
2022-09-21T12:48:38.835Z,61.34
2022-09-21T12:51:24.552Z,58.37
2022-09-21T12:53:58.083Z,58.26
2022-09-21T12:56:51.231Z,56.36
2022-09-21T12:59:43.389Z,56.17
2022-09-21T13:02:51.562Z,56.02
2022-09-21T13:05:27.094Z,56.47
2022-09-21T13:08:13.149Z,56.98
2022-09-21T13:10:44.937Z,57.64
2022-09-21T13:13:27.952Z,58.17
2022-09-21T13:15:55.014Z,58.01
2022-09-21T13:18:35.853Z,56.56
2022-09-21T13:21:16.852Z,57.84
2022-09-21T13:23:43.809Z,61.10
2022-09-21T13:26:12.125Z,64.15
2022-09-21T13:28:58.457Z,65.65
2022-09-21T13:31:57.447Z,66.14
2022-09-21T13:34:29.663Z,68.14
2022-09-21T13:37:11.328Z,69.89
2022-09-21T13:39:43.636Z,70.62
2022-09-21T13:42:28.370Z,71.68
2022-09-21T13:44:55.450Z,70.50
2022-09-21T13:47:31.593Z,67.73
2022-09-21T13:50:01.100Z,68.27
2022-09-21T13:52:32.384Z,66.80
2022-09-21T13:55:01.735Z,67.88
2022-09-21T13:57:34.877Z,69.23
2022-09-21T14:00:26.484Z,68.16
2022-09-21T14:03:06.016Z,69.30
2022-09-21T14:05:45.963Z,71.02
2022-09-21T14:08:15.655Z,71.75
2022-09-21T14:10:54.397Z,72.41
2022-09-21T14:13:26.662Z,72.75
2022-09-21T14:15:53.143Z,71.46
2022-09-21T14:18:35.670Z,70.38
2022-09-21T14:21:08.203Z,69.59
2022-09-21T14:23:36.675Z,68.55
2022-09-21T14:26:40.872Z,66.55
2022-09-21T14:29:17.308Z,64.70
2022-09-21T14:31:44.072Z,66.72
2022-09-21T14:34:20.376Z,65.97
2022-09-21T14:36:52.785Z,64.41
2022-09-21T14:39:33.358Z,64.43
2022-09-21T14:42:17.534Z,65.16
2022-09-21T14:44:44.588Z,65.37
2022-09-21T14:47:29.516Z,66.50
2022-09-21T14:50:07.489Z,67.04
2022-09-21T14:53:02.076Z,65.34
2022-09-21T14:55:40.444Z,65.11
2022-09-21T14:58:24.858Z,65.62
2022-09-21T15:00:53.230Z,65.69
2022-09-21T15:03:30.581Z,65.99
2022-09-21T15:06:29.473Z,66.96
2022-09-21T15:09:39.606Z,66.53
2022-09-21T15:12:32.030Z,66.68
2022-09-21T15:15:23.123Z,66.18
2022-09-21T15:17:59.282Z,67.05
2022-09-21T15:20:27.702Z,67.50
2022-09-21T15:22:55.894Z,67.88
2022-09-21T15:25:24.343Z,67.43
2022-09-21T15:27:51.926Z,67.19
2022-09-21T15:30:21.806Z,65.95
2022-09-21T15:32:53.504Z,66.28
2022-09-21T15:35:33.371Z,66.96
2022-09-21T15:38:01.232Z,65.23
2022-09-21T15:40:31.066Z,65.86
2022-09-21T15:43:20.716Z,65.93
2022-09-21T15:45:54.623Z,65.41
2022-09-21T15:48:22.739Z,64.26
2022-09-21T15:51:07.942Z,65.25
2022-09-21T15:53:41.136Z,65.67
2022-09-21T15:56:09.712Z,65.45
2022-09-21T15:58:40.370Z,64.89
2022-09-21T16:01:14.758Z,64.35
2022-09-21T16:03:42.487Z,63.44
2022-09-21T16:06:37.706Z,63.81
2022-09-21T16:09:31.704Z,64.36
2022-09-21T16:11:58.675Z,65.00
2022-09-21T16:14:44.043Z,65.32
2022-09-21T16:17:13.267Z,65.52
2022-09-21T16:19:49.617Z,65.57
2022-09-21T16:22:21.421Z,66.50
2022-09-21T16:24:54.582Z,68.37
2022-09-21T16:27:24.522Z,73.19
2022-09-21T16:29:53.057Z,73.49
2022-09-21T16:32:19.421Z,75.05
2022-09-21T16:34:51.623Z,79.45
2022-09-21T16:37:27.991Z,80.01
2022-09-21T16:39:56.153Z,81.45
2022-09-21T16:42:27.781Z,82.48
2022-09-21T16:44:54.853Z,83.05
2022-09-21T16:47:25.222Z,83.43
2022-09-21T16:49:56.910Z,84.93
2022-09-21T16:52:24.402Z,85.13
2022-09-21T16:54:51.240Z,85.42
2022-09-21T16:57:18.277Z,85.51
2022-09-21T16:59:44.628Z,85.67
2022-09-21T17:02:14.260Z,84.90
2022-09-21T17:04:41.310Z,84.77
2022-09-21T17:07:11.969Z,84.77
2022-09-21T17:09:42.022Z,85.20
2022-09-21T17:12:10.981Z,85.41
2022-09-21T17:14:40.908Z,85.66
2022-09-21T17:17:22.314Z,85.26
2022-09-21T17:19:50.284Z,85.18
2022-09-21T17:22:18.131Z,84.74
2022-09-21T17:24:50.761Z,84.97
2022-09-21T17:27:21.251Z,85.50
2022-09-21T17:29:49.485Z,84.99
2022-09-21T17:32:20.968Z,84.94
2022-09-21T17:35:19.887Z,84.64
2022-09-21T17:37:46.300Z,83.98
2022-09-21T17:40:13.649Z,83.92
2022-09-21T17:42:43.186Z,83.50
2022-09-21T17:45:21.756Z,83.19
2022-09-21T17:47:50.201Z,82.55
2022-09-21T17:50:26.813Z,83.02
2022-09-21T17:53:13.454Z,83.41
2022-09-21T17:55:45.638Z,83.80
2022-09-21T17:58:37.765Z,84.49
2022-09-21T18:01:04.116Z,83.84
2022-09-21T18:03:35.706Z,83.50
2022-09-21T18:06:02.427Z,83.43
2022-09-21T18:08:33.865Z,82.85
2022-09-21T18:11:03.184Z,82.69
2022-09-21T18:13:47.013Z,83.47
2022-09-21T18:16:22.565Z,83.04
2022-09-21T18:19:02.635Z,83.36
2022-09-21T18:21:33.685Z,82.86
2022-09-21T18:24:20.166Z,83.54
2022-09-21T18:26:47.876Z,83.75
2022-09-21T18:29:41.988Z,83.93
2022-09-21T18:32:23.833Z,83.04
2022-09-21T18:35:16.776Z,83.72
2022-09-21T18:38:05.144Z,83.37
2022-09-21T18:41:24.286Z,83.15
2022-09-21T18:44:31.701Z,83.40
2022-09-21T18:47:18.022Z,83.59
2022-09-21T18:50:19.983Z,83.59
2022-09-21T18:52:57.172Z,83.34
2022-09-21T18:55:29.036Z,83.72
2022-09-21T18:57:57.157Z,83.91
2022-09-21T19:00:31.474Z,83.83
2022-09-21T19:03:16.316Z,84.72
2022-09-21T19:05:54.578Z,84.44
2022-09-21T19:09:15.903Z,84.63
2022-09-21T19:11:50.003Z,84.38
2022-09-21T19:14:45.295Z,84.17
2022-09-21T19:17:33.189Z,84.36
2022-09-21T19:20:12.427Z,84.48
2022-09-21T19:22:56.880Z,84.39
2022-09-21T19:25:34.137Z,85.39
2022-09-21T19:28:05.720Z,86.12
2022-09-21T19:30:32.317Z,85.90
2022-09-21T19:32:59.953Z,85.00
2022-09-21T19:35:28.937Z,84.91
2022-09-21T19:38:02.331Z,84.81
2022-09-21T19:40:32.490Z,84.49
2022-09-21T19:43:23.779Z,85.15
2022-09-21T19:46:04.861Z,85.25
2022-09-21T19:48:46.228Z,85.05
2022-09-21T19:51:16.345Z,85.49
2022-09-21T19:54:01.705Z,85.88
2022-09-21T19:56:53.337Z,85.90
2022-09-21T19:59:40.430Z,85.99
2022-09-21T20:02:10.793Z,86.49
2022-09-21T20:04:56.857Z,85.82
2022-09-21T20:07:44.289Z,85.94
2022-09-21T20:10:24.035Z,85.99
2022-09-21T20:13:08.397Z,87.16
2022-09-21T20:15:46.799Z,86.44
2022-09-21T20:18:46.219Z,87.77
2022-09-21T20:21:15.668Z,88.17
2022-09-21T20:23:42.422Z,87.71
2022-09-21T20:26:23.401Z,88.47
2022-09-21T20:28:54.086Z,88.59
2022-09-21T20:31:25.663Z,87.40
2022-09-21T20:33:52.082Z,87.39
2022-09-21T20:36:18.532Z,86.78
2022-09-21T20:38:44.950Z,87.71
2022-09-21T20:41:12.962Z,87.21
2022-09-21T20:43:39.664Z,86.86
2022-09-21T20:46:06.330Z,87.08
2022-09-21T20:48:32.717Z,86.98
2022-09-21T20:51:01.517Z,86.83
2022-09-21T20:53:27.844Z,86.20
2022-09-21T20:55:56.418Z,86.61
2022-09-21T20:58:23.798Z,86.66
2022-09-21T21:00:54.002Z,86.79
2022-09-21T21:03:22.917Z,87.02
2022-09-21T21:05:49.266Z,86.86
2022-09-21T21:08:15.652Z,87.01
2022-09-21T21:10:46.540Z,87.37
2022-09-21T21:13:12.892Z,87.04
2022-09-21T21:15:39.229Z,87.08
2022-09-21T21:18:10.019Z,87.25
2022-09-21T21:20:37.518Z,86.84
2022-09-21T21:23:07.903Z,86.49
2022-09-21T21:25:34.835Z,86.63
2022-09-21T21:28:01.686Z,87.01
2022-09-21T21:30:28.089Z,87.25
2022-09-21T21:32:54.482Z,86.96
2022-09-21T21:35:20.832Z,87.07
2022-09-21T21:37:47.298Z,87.09
2022-09-21T21:40:13.785Z,86.84
2022-09-21T21:42:40.134Z,87.28
2022-09-21T21:45:07.430Z,86.97
2022-09-21T21:47:41.432Z,86.95
2022-09-21T21:50:09.609Z,86.87
2022-09-21T21:52:36.173Z,86.63
2022-09-21T21:55:02.937Z,87.01
2022-09-21T21:57:29.333Z,87.04
2022-09-21T21:59:55.658Z,87.04
2022-09-21T22:02:22.273Z,87.25
2022-09-21T22:04:48.642Z,87.58
2022-09-21T22:07:15.021Z,87.35
2022-09-21T22:09:41.384Z,87.30
2022-09-21T22:12:09.013Z,87.01
2022-09-21T22:14:35.528Z,87.36
2022-09-21T22:17:02.236Z,87.47
2022-09-21T22:19:28.698Z,87.77
2022-09-21T22:21:55.142Z,87.18
2022-09-21T22:24:22.161Z,86.86
2022-09-21T22:26:48.826Z,87.29
2022-09-21T22:29:17.066Z,87.09
2022-09-21T22:31:46.588Z,86.89
2022-09-21T22:34:14.510Z,86.66
2022-09-21T22:36:43.196Z,87.03
2022-09-21T22:39:09.832Z,86.87
2022-09-21T22:41:41.054Z,87.11
2022-09-21T22:44:07.781Z,87.19
2022-09-21T22:46:34.850Z,87.36
2022-09-21T22:49:01.298Z,87.19
2022-09-21T22:51:28.788Z,87.11
2022-09-21T22:53:55.735Z,86.94
2022-09-21T22:56:25.546Z,86.45
2022-09-21T22:58:54.415Z,86.81
2022-09-21T23:01:29.853Z,87.34
2022-09-21T23:03:58.732Z,86.51
2022-09-21T23:06:28.307Z,87.04
2022-09-21T23:08:57.179Z,87.13
2022-09-21T23:11:29.266Z,86.97
2022-09-21T23:13:57.321Z,87.08
2022-09-21T23:16:25.194Z,86.74
2022-09-21T23:18:51.617Z,86.66
2022-09-21T23:21:20.623Z,87.20
2022-09-21T23:23:47.789Z,87.41
2022-09-21T23:26:17.332Z,87.42
2022-09-21T23:28:45.884Z,87.08
2022-09-21T23:31:14.716Z,86.91
2022-09-21T23:33:46.521Z,87.83
2022-09-21T23:36:16.390Z,87.41
2022-09-21T23:38:43.247Z,87.30
2022-09-21T23:41:12.197Z,87.24
2022-09-21T23:43:40.679Z,87.11
2022-09-21T23:46:08.819Z,86.52
2022-09-21T23:48:35.942Z,86.28
2022-09-21T23:51:03.411Z,86.16
2022-09-21T23:53:30.894Z,86.56
2022-09-21T23:55:58.015Z,86.57
2022-09-21T23:58:25.817Z,86.81
